sensor_id;sensor_type;location;lat;lon;timestamp;pressure;altitude;pressure_sealevel;temperature;humidity
5455;BME280;2750;49.050;9.250;2023-03-03T00:00:18;99029.03;;;5.11;82.37
5455;BME280;2750;49.050;9.250;2023-03-03T00:05:20;99021.63;;;5.38;81.26
5455;BME280;2750;49.050;9.250;2023-03-03T00:10:22;99031.13;;;4.94;82.32
5455;BME280;2750;49.050;9.250;2023-03-03T00:15:25;99025.25;;;4.88;83.07
5455;BME280;2750;49.050;9.250;2023-03-03T00:20:31;99029.78;;;4.75;82.58
5455;BME280;2750;49.050;9.250;2023-03-03T00:25:34;99031.91;;;4.53;83.64
5455;BME280;2750;49.050;9.250;2023-03-03T00:30:37;99037.63;;;4.21;84.93
5455;BME280;2750;49.050;9.250;2023-03-03T00:35:38;99032.22;;;3.84;86.97
5455;BME280;2750;49.050;9.250;2023-03-03T00:40:40;99032.88;;;4.48;84.86
5455;BME280;2750;49.050;9.250;2023-03-03T00:45:45;99033.16;;;4.31;85.19
5455;BME280;2750;49.050;9.250;2023-03-03T00:50:47;99033.59;;;4.56;83.50
5455;BME280;2750;49.050;9.250;2023-03-03T00:55:50;99032.50;;;4.20;84.83
5455;BME280;2750;49.050;9.250;2023-03-03T01:00:53;99041.56;;;3.90;86.13
5455;BME280;2750;49.050;9.250;2023-03-03T01:05:58;99037.47;;;3.78;87.31
5455;BME280;2750;49.050;9.250;2023-03-03T01:11:03;99039.25;;;4.25;84.55
5455;BME280;2750;49.050;9.250;2023-03-03T01:16:07;99034.09;;;4.25;83.74
5455;BME280;2750;49.050;9.250;2023-03-03T01:21:09;99037.78;;;4.12;83.16
5455;BME280;2750;49.050;9.250;2023-03-03T01:26:11;99031.91;;;4.04;84.67
5455;BME280;2750;49.050;9.250;2023-03-03T01:31:14;99030.28;;;3.44;86.57
5455;BME280;2750;49.050;9.250;2023-03-03T01:36:22;99021.41;;;3.66;86.02
5455;BME280;2750;49.050;9.250;2023-03-03T01:41:26;99021.09;;;3.84;84.46
5455;BME280;2750;49.050;9.250;2023-03-03T01:46:45;99019.53;;;3.77;84.27
5455;BME280;2750;49.050;9.250;2023-03-03T01:51:51;99019.19;;;3.43;85.53
5455;BME280;2750;49.050;9.250;2023-03-03T01:56:56;99019.88;;;3.53;84.73
5455;BME280;2750;49.050;9.250;2023-03-03T02:02:01;99020.53;;;3.67;83.33
5455;BME280;2750;49.050;9.250;2023-03-03T02:07:05;99019.75;;;3.62;82.49
5455;BME280;2750;49.050;9.250;2023-03-03T02:12:12;99022.53;;;3.47;83.33
5455;BME280;2750;49.050;9.250;2023-03-03T02:17:16;99014.81;;;3.50;83.15
5455;BME280;2750;49.050;9.250;2023-03-03T02:22:21;99023.88;;;3.11;85.56
5455;BME280;2750;49.050;9.250;2023-03-03T02:27:26;99028.44;;;2.87;86.54
5455;BME280;2750;49.050;9.250;2023-03-03T02:32:29;99030.75;;;3.10;85.09
5455;BME280;2750;49.050;9.250;2023-03-03T02:37:31;99021.41;;;3.05;85.08
5455;BME280;2750;49.050;9.250;2023-03-03T02:42:34;99034.22;;;3.06;84.27
5455;BME280;2750;49.050;9.250;2023-03-03T02:47:35;99034.22;;;3.06;84.06
5455;BME280;2750;49.050;9.250;2023-03-03T02:52:37;99023.31;;;2.87;84.54
5455;BME280;2750;49.050;9.250;2023-03-03T02:57:40;99027.63;;;2.84;85.22
5455;BME280;2750;49.050;9.250;2023-03-03T03:02:41;99034.41;;;2.89;83.88
5455;BME280;2750;49.050;9.250;2023-03-03T03:07:43;99027.78;;;2.72;85.11
5455;BME280;2750;49.050;9.250;2023-03-03T03:12:46;99033.47;;;2.98;84.65
5455;BME280;2750;49.050;9.250;2023-03-03T03:17:47;99035.97;;;2.23;86.43
5455;BME280;2750;49.050;9.250;2023-03-03T03:22:49;99040.97;;;2.34;85.93
5455;BME280;2750;49.050;9.250;2023-03-03T03:27:52;99043.34;;;2.55;85.72
5455;BME280;2750;49.050;9.250;2023-03-03T03:32:53;99042.31;;;2.71;85.79
5455;BME280;2750;49.050;9.250;2023-03-03T03:37:55;99044.84;;;2.73;85.35
5455;BME280;2750;49.050;9.250;2023-03-03T03:42:58;99037.19;;;2.68;84.88
5455;BME280;2750;49.050;9.250;2023-03-03T03:47:59;99044.06;;;2.65;84.86
5455;BME280;2750;49.050;9.250;2023-03-03T03:53:01;99039.16;;;2.48;85.65
5455;BME280;2750;49.050;9.250;2023-03-03T03:58:04;99037.19;;;2.68;84.71
5455;BME280;2750;49.050;9.250;2023-03-03T04:03:05;99039.75;;;2.70;85.35
5455;BME280;2750;49.050;9.250;2023-03-03T04:08:07;99038.03;;;2.72;85.21
5455;BME280;2750;49.050;9.250;2023-03-03T04:13:10;99046.19;;;3.04;85.08
5455;BME280;2750;49.050;9.250;2023-03-03T04:18:11;99052.13;;;3.08;85.62
5455;BME280;2750;49.050;9.250;2023-03-03T04:23:13;99059.47;;;3.33;85.02
5455;BME280;2750;49.050;9.250;2023-03-03T04:28:16;99050.81;;;3.44;85.72
5455;BME280;2750;49.050;9.250;2023-03-03T04:33:18;99065.00;;;3.66;85.49
5455;BME280;2750;49.050;9.250;2023-03-03T04:38:19;99048.53;;;3.82;84.64
5455;BME280;2750;49.050;9.250;2023-03-03T04:43:22;99057.50;;;4.09;84.07
5455;BME280;2750;49.050;9.250;2023-03-03T04:48:24;99056.53;;;4.14;83.49
5455;BME280;2750;49.050;9.250;2023-03-03T04:53:25;99046.84;;;4.31;82.94
5455;BME280;2750;49.050;9.250;2023-03-03T04:58:28;99040.84;;;4.32;83.29
5455;BME280;2750;49.050;9.250;2023-03-03T05:03:30;99049.00;;;4.56;82.50
5455;BME280;2750;49.050;9.250;2023-03-03T05:08:31;99059.94;;;4.65;82.91
5455;BME280;2750;49.050;9.250;2023-03-03T05:13:35;99064.38;;;4.57;82.50
5455;BME280;2750;49.050;9.250;2023-03-03T05:18:36;99080.16;;;3.82;83.40
5455;BME280;2750;49.050;9.250;2023-03-03T05:23:38;99083.47;;;4.43;84.29
5455;BME280;2750;49.050;9.250;2023-03-03T05:28:41;99081.28;;;4.69;82.93
5455;BME280;2750;49.050;9.250;2023-03-03T05:33:42;99079.19;;;4.89;82.60
5455;BME280;2750;49.050;9.250;2023-03-03T05:38:44;99082.75;;;4.82;82.07
5455;BME280;2750;49.050;9.250;2023-03-03T05:43:47;99086.75;;;4.97;81.97
5455;BME280;2750;49.050;9.250;2023-03-03T05:48:49;99089.81;;;5.15;80.64
5455;BME280;2750;49.050;9.250;2023-03-03T05:53:50;99099.34;;;5.10;81.76
5455;BME280;2750;49.050;9.250;2023-03-03T05:58:53;99095.13;;;5.08;80.84
5455;BME280;2750;49.050;9.250;2023-03-03T06:03:55;99095.50;;;5.31;80.60
5455;BME280;2750;49.050;9.250;2023-03-03T06:08:56;99107.56;;;5.27;80.45
5455;BME280;2750;49.050;9.250;2023-03-03T06:13:59;99113.09;;;5.51;80.01
5455;BME280;2750;49.050;9.250;2023-03-03T06:19:01;99116.78;;;5.39;79.99
5455;BME280;2750;49.050;9.250;2023-03-03T06:24:03;99115.31;;;5.26;80.27
5455;BME280;2750;49.050;9.250;2023-03-03T06:29:05;99119.16;;;5.05;81.64
5455;BME280;2750;49.050;9.250;2023-03-03T06:34:07;99128.69;;;5.00;81.74
5455;BME280;2750;49.050;9.250;2023-03-03T06:39:09;99130.13;;;5.56;80.67
5455;BME280;2750;49.050;9.250;2023-03-03T06:44:11;99132.97;;;5.84;79.22
5455;BME280;2750;49.050;9.250;2023-03-03T06:49:13;99133.03;;;5.81;79.90
5455;BME280;2750;49.050;9.250;2023-03-03T06:54:17;99138.06;;;6.25;78.39
5455;BME280;2750;49.050;9.250;2023-03-03T06:59:20;99144.78;;;5.94;76.95
5455;BME280;2750;49.050;9.250;2023-03-03T07:04:26;99154.69;;;6.12;78.06
5455;BME280;2750;49.050;9.250;2023-03-03T07:09:30;99150.28;;;5.77;78.67
5455;BME280;2750;49.050;9.250;2023-03-03T07:14:34;99154.41;;;5.86;78.11
5455;BME280;2750;49.050;9.250;2023-03-03T07:19:42;99159.25;;;6.01;78.07
5455;BME280;2750;49.050;9.250;2023-03-03T07:24:45;99157.19;;;6.15;78.12
5455;BME280;2750;49.050;9.250;2023-03-03T07:29:50;99169.25;;;5.73;77.29
5455;BME280;2750;49.050;9.250;2023-03-03T07:34:53;99178.06;;;5.60;78.98
5455;BME280;2750;49.050;9.250;2023-03-03T07:39:55;99174.84;;;6.32;77.61
5455;BME280;2750;49.050;9.250;2023-03-03T07:44:59;99182.09;;;6.52;75.53
5455;BME280;2750;49.050;9.250;2023-03-03T07:50:12;99190.84;;;6.45;75.12
5455;BME280;2750;49.050;9.250;2023-03-03T07:55:27;99182.72;;;6.61;72.95
5455;BME280;2750;49.050;9.250;2023-03-03T08:06:30;99196.22;;;6.71;73.49
5455;BME280;2750;49.050;9.250;2023-03-03T08:11:37;99186.19;;;6.94;70.04
5455;BME280;2750;49.050;9.250;2023-03-03T08:16:44;99181.03;;;7.27;68.91
5455;BME280;2750;49.050;9.250;2023-03-03T08:21:47;99183.94;;;7.47;70.81
5455;BME280;2750;49.050;9.250;2023-03-03T08:26:49;99184.97;;;7.40;68.55
5455;BME280;2750;49.050;9.250;2023-03-03T08:31:50;99190.00;;;7.75;67.99
5455;BME280;2750;49.050;9.250;2023-03-03T08:36:53;99198.03;;;7.35;68.17
5455;BME280;2750;49.050;9.250;2023-03-03T08:41:57;99186.44;;;9.88;64.36
5455;BME280;2750;49.050;9.250;2023-03-03T08:46:58;99187.16;;;11.00;61.51
5455;BME280;2750;49.050;9.250;2023-03-03T08:52:02;99184.16;;;11.11;60.52
5455;BME280;2750;49.050;9.250;2023-03-03T08:57:03;99187.19;;;12.88;56.36
5455;BME280;2750;49.050;9.250;2023-03-03T09:02:05;99174.84;;;14.56;55.39
5455;BME280;2750;49.050;9.250;2023-03-03T09:07:08;99192.56;;;11.76;55.69
5455;BME280;2750;49.050;9.250;2023-03-03T09:12:14;99196.06;;;12.31;56.45
5455;BME280;2750;49.050;9.250;2023-03-03T09:17:23;99187.69;;;12.79;55.01
5455;BME280;2750;49.050;9.250;2023-03-03T09:22:27;99185.13;;;12.06;56.13
5455;BME280;2750;49.050;9.250;2023-03-03T09:27:30;99181.09;;;13.24;54.56
5455;BME280;2750;49.050;9.250;2023-03-03T09:32:33;99194.03;;;12.01;56.44
5455;BME280;2750;49.050;9.250;2023-03-03T09:37:36;99204.69;;;9.62;60.89
5455;BME280;2750;49.050;9.250;2023-03-03T09:42:47;99202.19;;;11.14;59.40
5455;BME280;2750;49.050;9.250;2023-03-03T09:48:08;99209.69;;;10.58;59.87
5455;BME280;2750;49.050;9.250;2023-03-03T09:53:22;99213.81;;;11.45;57.29
5455;BME280;2750;49.050;9.250;2023-03-03T09:58:36;99210.63;;;11.98;56.82
5455;BME280;2750;49.050;9.250;2023-03-03T10:04:03;99205.78;;;10.89;58.90
5455;BME280;2750;49.050;9.250;2023-03-03T10:09:37;99203.03;;;9.59;60.03
5455;BME280;2750;49.050;9.250;2023-03-03T10:14:53;99204.03;;;9.05;61.58
5455;BME280;2750;49.050;9.250;2023-03-03T10:20:06;99205.00;;;9.28;62.88
5455;BME280;2750;49.050;9.250;2023-03-03T10:25:21;99192.59;;;12.31;58.25
5455;BME280;2750;49.050;9.250;2023-03-03T10:30:35;99203.31;;;12.25;56.79
5455;BME280;2750;49.050;9.250;2023-03-03T10:35:55;99195.72;;;12.02;56.96
5455;BME280;2750;49.050;9.250;2023-03-03T10:41:12;99190.19;;;12.64;56.65
5455;BME280;2750;49.050;9.250;2023-03-03T10:46:31;99195.16;;;12.14;56.88
5455;BME280;2750;49.050;9.250;2023-03-03T10:51:43;99208.03;;;11.19;58.36
5455;BME280;2750;49.050;9.250;2023-03-03T10:56:58;99204.91;;;11.11;59.77
5455;BME280;2750;49.050;9.250;2023-03-03T11:02:02;99208.25;;;10.92;59.67
5455;BME280;2750;49.050;9.250;2023-03-03T11:07:08;99225.59;;;9.80;61.62
5455;BME280;2750;49.050;9.250;2023-03-03T11:12:27;99206.47;;;9.59;61.87
5455;BME280;2750;49.050;9.250;2023-03-03T11:17:51;99205.31;;;9.91;60.86
5455;BME280;2750;49.050;9.250;2023-03-03T11:22:59;99206.16;;;9.44;61.72
5455;BME280;2750;49.050;9.250;2023-03-03T11:28:17;99206.75;;;9.75;61.69
5455;BME280;2750;49.050;9.250;2023-03-03T11:33:24;99201.03;;;10.12;61.07
5455;BME280;2750;49.050;9.250;2023-03-03T11:38:36;99198.72;;;10.73;61.05
5455;BME280;2750;49.050;9.250;2023-03-03T11:43:45;99198.94;;;10.45;60.33
5455;BME280;2750;49.050;9.250;2023-03-03T11:48:52;99184.78;;;10.95;60.62
5455;BME280;2750;49.050;9.250;2023-03-03T11:54:00;99185.22;;;11.45;60.15
5455;BME280;2750;49.050;9.250;2023-03-03T11:59:17;99177.81;;;11.36;59.62
5455;BME280;2750;49.050;9.250;2023-03-03T12:04:26;99175.06;;;10.14;61.73
5455;BME280;2750;49.050;9.250;2023-03-03T12:09:39;99158.56;;;10.16;61.85
5455;BME280;2750;49.050;9.250;2023-03-03T12:14:55;99151.16;;;10.72;60.64
5455;BME280;2750;49.050;9.250;2023-03-03T12:20:06;99157.63;;;11.82;59.07
5455;BME280;2750;49.050;9.250;2023-03-03T12:25:21;99157.38;;;11.29;59.62
5455;BME280;2750;49.050;9.250;2023-03-03T12:30:39;99151.66;;;12.53;57.89
5455;BME280;2750;49.050;9.250;2023-03-03T12:35:49;99147.53;;;12.30;57.83
5455;BME280;2750;49.050;9.250;2023-03-03T12:40:57;99129.28;;;13.01;57.18
5455;BME280;2750;49.050;9.250;2023-03-03T12:46:06;99137.53;;;13.10;56.23
5455;BME280;2750;49.050;9.250;2023-03-03T12:51:19;99125.16;;;12.97;56.15
5455;BME280;2750;49.050;9.250;2023-03-03T12:56:30;99131.81;;;11.38;58.26
5455;BME280;2750;49.050;9.250;2023-03-03T13:01:47;99124.88;;;11.78;57.29
5455;BME280;2750;49.050;9.250;2023-03-03T13:06:58;99123.59;;;12.05;56.87
5455;BME280;2750;49.050;9.250;2023-03-03T13:12:21;99127.81;;;12.08;57.96
5455;BME280;2750;49.050;9.250;2023-03-03T13:17:29;99119.16;;;12.26;57.23
5455;BME280;2750;49.050;9.250;2023-03-03T13:22:41;99114.22;;;11.84;57.76
5455;BME280;2750;49.050;9.250;2023-03-03T13:27:50;99114.28;;;12.71;56.52
5455;BME280;2750;49.050;9.250;2023-03-03T13:32:58;99117.53;;;13.11;56.63
5455;BME280;2750;49.050;9.250;2023-03-03T13:38:03;99112.81;;;13.00;56.60
5455;BME280;2750;49.050;9.250;2023-03-03T13:43:11;99111.22;;;13.48;55.84
5455;BME280;2750;49.050;9.250;2023-03-03T13:48:28;99101.53;;;13.98;55.24
5455;BME280;2750;49.050;9.250;2023-03-03T13:53:41;99096.53;;;15.43;53.06
5455;BME280;2750;49.050;9.250;2023-03-03T13:58:52;99093.13;;;14.54;54.69
5455;BME280;2750;49.050;9.250;2023-03-03T14:04:05;99087.38;;;13.86;55.03
5455;BME280;2750;49.050;9.250;2023-03-03T14:09:36;99085.00;;;14.29;55.16
5455;BME280;2750;49.050;9.250;2023-03-03T14:14:46;99080.88;;;14.09;56.01
5455;BME280;2750;49.050;9.250;2023-03-03T14:20:00;99087.13;;;13.75;55.42
5455;BME280;2750;49.050;9.250;2023-03-03T14:25:05;99077.28;;;13.80;56.07
5455;BME280;2750;49.050;9.250;2023-03-03T14:30:28;99080.09;;;14.23;55.27
5455;BME280;2750;49.050;9.250;2023-03-03T14:35:36;99068.16;;;14.03;55.80
5455;BME280;2750;49.050;9.250;2023-03-03T14:40:39;99076.06;;;14.93;54.79
5455;BME280;2750;49.050;9.250;2023-03-03T14:45:42;99070.41;;;14.70;54.80
5455;BME280;2750;49.050;9.250;2023-03-03T14:50:48;99067.28;;;14.34;55.34
5455;BME280;2750;49.050;9.250;2023-03-03T14:55:52;99071.66;;;14.33;55.54
5455;BME280;2750;49.050;9.250;2023-03-03T15:01:15;99067.41;;;14.62;54.58
5455;BME280;2750;49.050;9.250;2023-03-03T15:06:30;99059.09;;;13.63;55.75
5455;BME280;2750;49.050;9.250;2023-03-03T15:11:35;99061.94;;;14.95;54.78
5455;BME280;2750;49.050;9.250;2023-03-03T15:16:36;99058.84;;;14.74;54.53
5455;BME280;2750;49.050;9.250;2023-03-03T15:21:47;99047.31;;;15.07;54.11
5455;BME280;2750;49.050;9.250;2023-03-03T15:26:55;99047.16;;;15.10;54.19
5455;BME280;2750;49.050;9.250;2023-03-03T15:32:06;99059.25;;;14.82;55.73
5455;BME280;2750;49.050;9.250;2023-03-03T15:37:24;99062.28;;;15.33;54.30
5455;BME280;2750;49.050;9.250;2023-03-03T15:42:31;99052.56;;;14.33;55.87
5455;BME280;2750;49.050;9.250;2023-03-03T15:47:49;99056.63;;;14.53;55.35
5455;BME280;2750;49.050;9.250;2023-03-03T15:53:04;99061.28;;;14.02;55.97
5455;BME280;2750;49.050;9.250;2023-03-03T15:58:28;99056.25;;;13.19;57.53
5455;BME280;2750;49.050;9.250;2023-03-03T16:03:36;99060.13;;;12.95;58.25
5455;BME280;2750;49.050;9.250;2023-03-03T16:08:46;99060.75;;;13.33;57.90
5455;BME280;2750;49.050;9.250;2023-03-03T16:14:00;99058.72;;;12.72;58.82
5455;BME280;2750;49.050;9.250;2023-03-03T16:19:16;99066.66;;;12.52;59.15
5455;BME280;2750;49.050;9.250;2023-03-03T16:24:24;99077.75;;;12.56;58.83
5455;BME280;2750;49.050;9.250;2023-03-03T16:29:38;99083.19;;;12.34;59.20
5455;BME280;2750;49.050;9.250;2023-03-03T16:34:54;99087.03;;;12.44;59.33
5455;BME280;2750;49.050;9.250;2023-03-03T16:40:02;99086.88;;;12.47;59.42
5455;BME280;2750;49.050;9.250;2023-03-03T16:45:17;99092.97;;;12.46;59.88
5455;BME280;2750;49.050;9.250;2023-03-03T16:50:26;99094.75;;;12.45;59.73
5455;BME280;2750;49.050;9.250;2023-03-03T16:55:35;99109.97;;;12.36;60.37
5455;BME280;2750;49.050;9.250;2023-03-03T17:00:42;99121.19;;;12.19;60.81
5455;BME280;2750;49.050;9.250;2023-03-03T17:05:48;99118.66;;;12.18;60.49
5455;BME280;2750;49.050;9.250;2023-03-03T17:10:59;99135.91;;;11.83;61.52
5455;BME280;2750;49.050;9.250;2023-03-03T17:16:11;99139.94;;;11.70;62.49
5455;BME280;2750;49.050;9.250;2023-03-03T17:21:22;99147.06;;;11.07;64.20
5455;BME280;2750;49.050;9.250;2023-03-03T17:26:37;99150.16;;;10.09;66.05
5455;BME280;2750;49.050;9.250;2023-03-03T17:31:48;99154.38;;;9.67;67.23
5455;BME280;2750;49.050;9.250;2023-03-03T17:37:02;99156.34;;;9.60;68.44
5455;BME280;2750;49.050;9.250;2023-03-03T17:42:11;99160.34;;;9.46;69.48
5455;BME280;2750;49.050;9.250;2023-03-03T17:47:24;99170.81;;;9.18;68.67
5455;BME280;2750;49.050;9.250;2023-03-03T17:52:46;99171.56;;;8.71;69.03
5455;BME280;2750;49.050;9.250;2023-03-03T17:58:04;99188.72;;;8.19;71.30
5455;BME280;2750;49.050;9.250;2023-03-03T18:03:27;99187.22;;;8.12;71.52
5455;BME280;2750;49.050;9.250;2023-03-03T18:08:48;99193.13;;;8.71;70.76
5455;BME280;2750;49.050;9.250;2023-03-03T18:14:30;99198.34;;;8.70;70.51
5455;BME280;2750;49.050;9.250;2023-03-03T18:19:50;99202.34;;;8.52;71.00
5455;BME280;2750;49.050;9.250;2023-03-03T18:25:00;99209.88;;;8.32;71.10
5455;BME280;2750;49.050;9.250;2023-03-03T18:30:22;99209.88;;;7.73;72.95
5455;BME280;2750;49.050;9.250;2023-03-03T18:35:27;99227.97;;;7.41;73.91
5455;BME280;2750;49.050;9.250;2023-03-03T18:40:33;99224.31;;;7.80;72.75
5455;BME280;2750;49.050;9.250;2023-03-03T18:45:50;99230.00;;;7.91;73.16
5455;BME280;2750;49.050;9.250;2023-03-03T18:50:51;99234.09;;;7.37;74.20
5455;BME280;2750;49.050;9.250;2023-03-03T18:55:54;99244.78;;;7.23;74.72
5455;BME280;2750;49.050;9.250;2023-03-03T19:00:59;99248.88;;;7.32;74.05
5455;BME280;2750;49.050;9.250;2023-03-03T19:06:02;99249.47;;;7.09;75.21
5455;BME280;2750;49.050;9.250;2023-03-03T19:11:04;99260.47;;;7.15;75.50
5455;BME280;2750;49.050;9.250;2023-03-03T19:16:08;99258.69;;;7.17;74.63
5455;BME280;2750;49.050;9.250;2023-03-03T19:21:19;99257.22;;;7.07;75.26
5455;BME280;2750;49.050;9.250;2023-03-03T19:32:20;99277.31;;;6.95;75.22
5455;BME280;2750;49.050;9.250;2023-03-03T19:37:38;99263.91;;;7.16;74.17
5455;BME280;2750;49.050;9.250;2023-03-03T19:42:53;99265.13;;;7.01;74.25
5455;BME280;2750;49.050;9.250;2023-03-03T19:48:04;99288.56;;;6.92;74.79
5455;BME280;2750;49.050;9.250;2023-03-03T19:53:15;99287.31;;;6.71;75.91
5455;BME280;2750;49.050;9.250;2023-03-03T19:58:24;99284.53;;;6.44;75.58
5455;BME280;2750;49.050;9.250;2023-03-03T20:03:44;99287.22;;;6.38;76.12
5455;BME280;2750;49.050;9.250;2023-03-03T20:08:55;99287.38;;;6.30;75.69
5455;BME280;2750;49.050;9.250;2023-03-03T20:14:02;99296.28;;;6.15;76.91
5455;BME280;2750;49.050;9.250;2023-03-03T20:19:17;99298.03;;;6.13;76.90
5455;BME280;2750;49.050;9.250;2023-03-03T20:24:49;99306.13;;;5.95;77.04
5455;BME280;2750;49.050;9.250;2023-03-03T20:30:21;99300.59;;;5.69;78.21
5455;BME280;2750;49.050;9.250;2023-03-03T20:35:36;99306.22;;;5.42;78.68
5455;BME280;2750;49.050;9.250;2023-03-03T20:40:46;99309.31;;;5.11;80.66
5455;BME280;2750;49.050;9.250;2023-03-03T20:45:59;99307.47;;;5.21;80.62
5455;BME280;2750;49.050;9.250;2023-03-03T20:51:11;99304.66;;;5.35;80.13
5455;BME280;2750;49.050;9.250;2023-03-03T20:56:20;99318.31;;;5.37;80.08
5455;BME280;2750;49.050;9.250;2023-03-03T21:01:28;99316.91;;;5.20;80.16
5455;BME280;2750;49.050;9.250;2023-03-03T21:06:39;99322.25;;;5.07;80.14
5455;BME280;2750;49.050;9.250;2023-03-03T21:11:42;99318.75;;;5.12;80.65
5455;BME280;2750;49.050;9.250;2023-03-03T21:16:44;99323.03;;;5.10;80.59
5455;BME280;2750;49.050;9.250;2023-03-03T21:21:48;99325.47;;;5.19;79.98
5455;BME280;2750;49.050;9.250;2023-03-03T21:26:52;99330.50;;;5.25;79.23
5455;BME280;2750;49.050;9.250;2023-03-03T21:31:57;99341.97;;;5.06;78.37
5455;BME280;2750;49.050;9.250;2023-03-03T21:37:01;99328.72;;;4.75;80.04
5455;BME280;2750;49.050;9.250;2023-03-03T21:42:05;99329.56;;;4.76;80.22
5455;BME280;2750;49.050;9.250;2023-03-03T21:47:08;99335.81;;;4.58;80.74
5455;BME280;2750;49.050;9.250;2023-03-03T21:52:12;99328.19;;;4.54;81.44
5455;BME280;2750;49.050;9.250;2023-03-03T21:57:15;99337.66;;;4.50;81.10
5455;BME280;2750;49.050;9.250;2023-03-03T22:02:17;99341.03;;;4.54;80.36
5455;BME280;2750;49.050;9.250;2023-03-03T22:07:20;99334.38;;;4.41;80.64
5455;BME280;2750;49.050;9.250;2023-03-03T22:12:22;99344.75;;;4.31;81.03
5455;BME280;2750;49.050;9.250;2023-03-03T22:17:24;99337.28;;;4.12;81.38
5455;BME280;2750;49.050;9.250;2023-03-03T22:22:26;99344.06;;;4.17;81.47
5455;BME280;2750;49.050;9.250;2023-03-03T22:27:28;99351.09;;;4.00;81.55
5455;BME280;2750;49.050;9.250;2023-03-03T22:32:30;99343.41;;;4.02;81.59
5455;BME280;2750;49.050;9.250;2023-03-03T22:37:33;99342.59;;;3.95;81.27
5455;BME280;2750;49.050;9.250;2023-03-03T22:42:34;99350.44;;;3.83;82.47
5455;BME280;2750;49.050;9.250;2023-03-03T22:47:36;99346.88;;;3.96;80.57
5455;BME280;2750;49.050;9.250;2023-03-03T22:52:39;99346.13;;;3.83;80.67
5455;BME280;2750;49.050;9.250;2023-03-03T22:57:40;99346.25;;;3.73;80.87
5455;BME280;2750;49.050;9.250;2023-03-03T23:02:42;99360.97;;;3.56;82.02
5455;BME280;2750;49.050;9.250;2023-03-03T23:07:45;99361.00;;;3.51;83.39
5455;BME280;2750;49.050;9.250;2023-03-03T23:12:46;99359.03;;;3.77;82.40
5455;BME280;2750;49.050;9.250;2023-03-03T23:17:48;99357.72;;;3.35;83.61
5455;BME280;2750;49.050;9.250;2023-03-03T23:22:51;99363.53;;;3.53;83.09
5455;BME280;2750;49.050;9.250;2023-03-03T23:27:53;99363.59;;;3.47;82.73
5455;BME280;2750;49.050;9.250;2023-03-03T23:32:55;99366.59;;;2.92;84.04
5455;BME280;2750;49.050;9.250;2023-03-03T23:37:58;99363.16;;;2.93;84.24
5455;BME280;2750;49.050;9.250;2023-03-03T23:42:59;99358.84;;;3.01;84.27
5455;BME280;2750;49.050;9.250;2023-03-03T23:48:01;99363.00;;;3.16;84.43
5455;BME280;2750;49.050;9.250;2023-03-03T23:53:04;99369.88;;;3.14;83.94
5455;BME280;2750;49.050;9.250;2023-03-03T23:58:06;99378.44;;;3.07;84.27
